createdAt,value
2018-10-16T00:00:50.727Z,99.90
2018-10-16T00:03:18.896Z,99.90
2018-10-16T00:05:47.055Z,99.90
2018-10-16T00:08:15.163Z,99.90
2018-10-16T00:10:46.131Z,99.90
2018-10-16T00:13:14.293Z,99.90
2018-10-16T00:15:42.437Z,99.90
2018-10-16T00:18:11.635Z,99.90
2018-10-16T00:20:40.405Z,99.90
2018-10-16T00:23:09.508Z,99.90
2018-10-16T00:25:37.649Z,99.90
2018-10-16T00:28:05.816Z,99.90
2018-10-16T00:30:34.000Z,99.90
2018-10-16T00:33:02.119Z,99.90
2018-10-16T00:35:30.293Z,99.90
2018-10-16T00:37:58.422Z,99.90
2018-10-16T00:40:26.555Z,99.90
2018-10-16T00:42:54.686Z,99.90
2018-10-16T00:45:22.830Z,99.90
2018-10-16T00:47:51.022Z,99.90
2018-10-16T00:50:19.143Z,99.90
2018-10-16T00:52:47.247Z,99.90
2018-10-16T00:55:15.386Z,99.90
2018-10-16T00:57:43.505Z,99.90
2018-10-16T01:00:12.516Z,99.90
2018-10-16T01:02:41.280Z,99.90
2018-10-16T01:05:10.469Z,99.90
2018-10-16T01:07:39.182Z,99.90
2018-10-16T01:10:07.944Z,99.90
2018-10-16T01:12:36.223Z,99.90
2018-10-16T01:15:04.366Z,99.90
2018-10-16T01:17:32.860Z,99.90
2018-10-16T01:20:00.989Z,99.90
2018-10-16T01:22:29.109Z,99.90
2018-10-16T01:24:57.244Z,99.90
2018-10-16T01:27:25.397Z,99.90
2018-10-16T01:29:53.589Z,99.90
2018-10-16T01:32:21.741Z,99.90
2018-10-16T01:34:49.930Z,99.90
2018-10-16T01:37:18.031Z,99.90
2018-10-16T01:39:46.141Z,99.90
2018-10-16T01:42:14.287Z,99.90
2018-10-16T01:44:42.444Z,99.90
2018-10-16T01:47:10.537Z,99.90
2018-10-16T01:49:38.670Z,99.90
2018-10-16T01:52:06.808Z,99.90
2018-10-16T01:54:34.937Z,99.90
2018-10-16T01:57:04.066Z,99.90
2018-10-16T01:59:32.213Z,99.90
2018-10-16T02:02:00.336Z,99.90
2018-10-16T02:04:28.458Z,99.90
2018-10-16T02:06:56.607Z,99.90
2018-10-16T02:09:24.713Z,99.90
2018-10-16T02:11:52.844Z,99.90
2018-10-16T02:14:20.973Z,99.90
2018-10-16T02:16:49.120Z,99.90
2018-10-16T02:19:17.235Z,99.90
2018-10-16T02:21:45.384Z,99.90
2018-10-16T02:24:13.521Z,99.90
2018-10-16T02:26:41.637Z,99.90
2018-10-16T02:29:09.788Z,99.90
2018-10-16T02:31:37.908Z,99.90
2018-10-16T02:34:06.597Z,99.90
2018-10-16T02:36:34.797Z,99.90
2018-10-16T02:39:02.943Z,99.90
2018-10-16T02:41:31.131Z,99.90
2018-10-16T02:43:59.264Z,99.90
2018-10-16T02:46:27.413Z,99.90
2018-10-16T02:48:55.539Z,99.90
2018-10-16T02:51:23.732Z,99.90
2018-10-16T02:53:52.265Z,99.90
2018-10-16T02:56:20.375Z,99.90
2018-10-16T02:58:48.486Z,99.90
2018-10-16T03:01:16.624Z,99.90
2018-10-16T03:03:44.743Z,99.90
2018-10-16T03:06:12.855Z,99.90
2018-10-16T03:08:40.999Z,99.90
2018-10-16T03:11:09.117Z,99.90
2018-10-16T03:13:37.315Z,99.90
2018-10-16T03:16:05.532Z,99.90
2018-10-16T03:18:33.671Z,99.90
2018-10-16T03:21:01.824Z,99.90
2018-10-16T03:23:29.927Z,99.90
2018-10-16T03:25:58.093Z,99.90
2018-10-16T03:28:26.196Z,99.90
2018-10-16T03:30:54.309Z,99.90
2018-10-16T03:33:22.455Z,99.90
2018-10-16T03:35:50.645Z,99.90
2018-10-16T03:38:18.851Z,99.90
2018-10-16T03:40:46.957Z,99.90
2018-10-16T03:43:15.072Z,99.90
2018-10-16T03:45:43.482Z,99.90
2018-10-16T03:48:11.580Z,99.90
2018-10-16T03:50:39.689Z,99.90
2018-10-16T03:53:07.848Z,99.90
2018-10-16T03:55:35.956Z,99.90
2018-10-16T03:58:04.861Z,99.90
2018-10-16T04:00:32.961Z,99.90
2018-10-16T04:03:01.149Z,99.90
2018-10-16T04:05:29.298Z,99.90
2018-10-16T04:07:57.498Z,99.90
2018-10-16T04:10:25.718Z,99.90
2018-10-16T04:12:53.847Z,99.90
2018-10-16T04:15:21.994Z,99.90
2018-10-16T04:17:50.089Z,99.90
2018-10-16T04:20:18.217Z,99.90
2018-10-16T04:22:46.346Z,99.90
2018-10-16T04:25:14.409Z,99.90
2018-10-16T04:27:42.527Z,99.90
2018-10-16T04:30:10.663Z,99.90
2018-10-16T04:32:38.873Z,99.90
2018-10-16T04:35:11.453Z,99.90
2018-10-16T04:37:39.844Z,99.90
2018-10-16T04:40:08.124Z,99.90
2018-10-16T04:42:36.212Z,99.90
2018-10-16T04:45:04.336Z,99.90
2018-10-16T04:47:32.424Z,99.90
2018-10-16T04:50:00.559Z,99.90
2018-10-16T04:52:28.641Z,99.90
2018-10-16T04:54:57.444Z,99.90
2018-10-16T04:57:26.295Z,99.90
2018-10-16T04:59:54.407Z,99.90
2018-10-16T05:02:22.482Z,99.90
2018-10-16T05:04:50.594Z,99.90
2018-10-16T05:07:18.680Z,99.90
2018-10-16T05:09:47.102Z,99.90
2018-10-16T05:12:15.203Z,99.90
2018-10-16T05:14:43.317Z,99.90
2018-10-16T05:17:11.438Z,99.90
2018-10-16T05:19:39.729Z,99.90
2018-10-16T05:22:07.830Z,99.90
2018-10-16T05:24:35.916Z,99.90
2018-10-16T05:27:04.104Z,99.90
2018-10-16T05:29:32.213Z,99.90
2018-10-16T05:32:00.333Z,99.90
2018-10-16T05:34:28.475Z,99.90
2018-10-16T05:36:56.642Z,99.90
2018-10-16T05:39:24.734Z,99.90
2018-10-16T05:41:52.871Z,99.90
2018-10-16T05:44:20.993Z,99.90
2018-10-16T05:46:49.069Z,99.90
2018-10-16T05:49:17.184Z,99.90
2018-10-16T05:51:45.333Z,99.90
2018-10-16T05:54:13.466Z,99.90
2018-10-16T05:56:41.512Z,99.90
2018-10-16T05:59:09.960Z,99.90
2018-10-16T06:01:38.036Z,99.90
2018-10-16T06:04:06.125Z,99.90
2018-10-16T06:06:34.247Z,99.90
2018-10-16T06:09:02.456Z,99.90
2018-10-16T06:11:30.902Z,99.90
2018-10-16T06:13:58.993Z,99.90
2018-10-16T06:16:27.112Z,99.90
2018-10-16T06:18:55.243Z,99.90
2018-10-16T06:21:23.383Z,99.90
2018-10-16T06:23:51.791Z,99.90
2018-10-16T06:26:19.961Z,99.90
2018-10-16T06:28:48.391Z,99.90
2018-10-16T06:31:16.500Z,99.90
2018-10-16T06:33:44.878Z,99.90
2018-10-16T06:36:12.932Z,99.90
2018-10-16T06:38:41.019Z,99.90
2018-10-16T06:41:09.241Z,99.90
2018-10-16T06:43:37.238Z,99.90
2018-10-16T06:46:05.385Z,99.90
2018-10-16T06:48:33.815Z,99.90
2018-10-16T06:51:01.634Z,99.90
2018-10-16T06:53:30.003Z,99.90
2018-10-16T06:55:58.076Z,99.90
2018-10-16T06:58:26.164Z,99.90
2018-10-16T07:00:54.299Z,99.90
2018-10-16T07:03:22.413Z,99.90
2018-10-16T07:05:50.553Z,99.90
2018-10-16T07:08:18.665Z,99.90
2018-10-16T07:10:46.803Z,99.90
2018-10-16T07:13:14.942Z,99.90
2018-10-16T07:15:43.015Z,99.90
2018-10-16T07:18:11.175Z,99.90
2018-10-16T07:20:39.324Z,99.90
2018-10-16T07:23:07.615Z,99.90
2018-10-16T07:25:35.707Z,99.90
2018-10-16T07:28:03.844Z,99.90
2018-10-16T07:30:31.982Z,99.90
2018-10-16T07:33:00.142Z,99.90
2018-10-16T07:35:28.253Z,99.90
2018-10-16T07:37:56.426Z,99.90
2018-10-16T07:40:24.537Z,99.90
2018-10-16T07:42:52.606Z,99.90
2018-10-16T07:45:20.684Z,99.90
2018-10-16T07:47:48.845Z,99.90
2018-10-16T07:50:16.936Z,99.90
2018-10-16T07:52:45.088Z,99.90
2018-10-16T07:55:14.032Z,99.90
2018-10-16T07:57:42.196Z,99.90
2018-10-16T08:00:11.495Z,99.90
2018-10-16T08:02:40.090Z,99.90
2018-10-16T08:05:09.341Z,99.90
2018-10-16T08:07:37.742Z,99.90
2018-10-16T08:10:07.633Z,99.90
2018-10-16T08:12:35.728Z,99.90
2018-10-16T08:15:04.111Z,99.90
2018-10-16T08:17:32.199Z,99.90
2018-10-16T08:20:00.356Z,99.90
2018-10-16T08:22:28.449Z,99.90
2018-10-16T08:24:56.533Z,99.90
2018-10-16T08:27:24.655Z,99.90
2018-10-16T08:29:52.768Z,99.90
2018-10-16T08:32:20.836Z,99.90
2018-10-16T08:34:48.966Z,99.90
2018-10-16T08:38:26.313Z,99.90
2018-10-16T08:40:54.667Z,99.90
2018-10-16T08:43:37.400Z,99.90
2018-10-16T08:46:16.922Z,99.90
2018-10-16T08:48:56.499Z,99.90
2018-10-16T08:51:39.842Z,99.90
2018-10-16T08:54:08.605Z,99.90
2018-10-16T08:56:36.695Z,99.90
2018-10-16T08:59:05.301Z,99.90
2018-10-16T09:01:33.382Z,99.90
2018-10-16T09:04:02.319Z,99.90
2018-10-16T09:06:30.641Z,99.90
2018-10-16T09:08:58.724Z,99.90
2018-10-16T09:11:27.131Z,99.90
2018-10-16T09:13:55.280Z,99.90
2018-10-16T09:16:23.646Z,99.90
2018-10-16T09:18:51.785Z,99.90
2018-10-16T09:21:19.925Z,99.90
2018-10-16T09:23:47.973Z,99.90
2018-10-16T09:26:16.156Z,99.90
2018-10-16T09:28:44.373Z,99.90
2018-10-16T09:31:12.867Z,99.90
2018-10-16T09:33:40.913Z,99.90
2018-10-16T09:36:08.991Z,99.90
2018-10-16T09:38:37.401Z,99.90
2018-10-16T09:41:05.575Z,99.90
2018-10-16T09:43:33.703Z,99.90
2018-10-16T09:46:01.787Z,99.70
2018-10-16T09:48:29.921Z,98.00
2018-10-16T09:50:57.991Z,98.40
2018-10-16T09:53:26.405Z,98.30
2018-10-16T09:55:54.478Z,96.80
2018-10-16T09:58:22.542Z,96.10
2018-10-16T10:00:56.240Z,96.70
2018-10-16T10:03:24.235Z,96.20
2018-10-16T10:05:52.314Z,96.80
2018-10-16T10:08:20.427Z,96.10
2018-10-16T10:10:48.556Z,96.00
2018-10-16T10:13:16.651Z,95.70
2018-10-16T10:15:44.724Z,95.10
2018-10-16T10:18:12.842Z,94.90
2018-10-16T10:20:40.964Z,94.60
2018-10-16T10:23:09.124Z,93.90
2018-10-16T10:25:37.217Z,93.00
2018-10-16T10:28:05.296Z,93.90
2018-10-16T10:30:33.714Z,93.70
2018-10-16T10:33:01.771Z,92.90
2018-10-16T10:35:29.869Z,92.10
2018-10-16T10:37:57.970Z,91.70
2018-10-16T10:40:26.039Z,93.10
2018-10-16T10:42:54.235Z,93.10
2018-10-16T10:45:22.311Z,93.10
2018-10-16T10:47:50.462Z,90.70
2018-10-16T10:50:18.691Z,91.30
2018-10-16T10:52:46.629Z,91.00
2018-10-16T10:55:14.780Z,91.70
2018-10-16T10:57:42.840Z,91.00
2018-10-16T11:00:12.520Z,90.00
2018-10-16T11:02:41.457Z,90.60
2018-10-16T11:05:10.751Z,90.10
2018-10-16T11:07:38.832Z,89.40
2018-10-16T11:10:09.140Z,89.80
2018-10-16T11:12:37.231Z,87.90
2018-10-16T11:15:06.542Z,87.70
2018-10-16T11:17:34.960Z,88.80
2018-10-16T11:20:03.124Z,88.60
2018-10-16T11:22:31.192Z,88.80
2018-10-16T11:24:59.312Z,87.40
2018-10-16T11:27:27.384Z,86.00
2018-10-16T11:29:55.540Z,86.90
2018-10-16T11:32:23.628Z,88.30
2018-10-16T11:34:51.732Z,89.40
2018-10-16T11:37:19.799Z,87.90
2018-10-16T11:39:48.181Z,84.10
2018-10-16T11:42:16.257Z,85.00
2018-10-16T11:44:44.332Z,84.30
2018-10-16T11:47:12.455Z,83.60
2018-10-16T11:49:40.640Z,81.00
2018-10-16T11:52:08.795Z,81.90
2018-10-16T11:54:36.808Z,81.40
2018-10-16T11:57:04.995Z,81.90
2018-10-16T11:59:33.076Z,82.50
2018-10-16T12:02:01.190Z,82.00
2018-10-16T12:04:29.279Z,81.20
2018-10-16T12:06:57.407Z,80.30
2018-10-16T12:09:25.424Z,78.90
2018-10-16T12:11:53.594Z,79.80
2018-10-16T12:14:21.687Z,81.70
2018-10-16T12:16:57.890Z,78.20
2018-10-16T12:19:29.907Z,79.90
2018-10-16T12:21:58.058Z,76.30
2018-10-16T12:24:26.142Z,77.90
2018-10-16T12:26:54.235Z,79.10
2018-10-16T12:29:22.365Z,80.40
2018-10-16T12:31:50.484Z,80.20
2018-10-16T12:34:18.622Z,80.70
2018-10-16T12:36:47.068Z,79.90
2018-10-16T12:39:15.221Z,79.90
2018-10-16T12:41:43.275Z,83.60
2018-10-16T12:44:11.408Z,86.90
2018-10-16T12:46:39.485Z,82.70
2018-10-16T12:49:07.557Z,82.90
2018-10-16T12:51:35.673Z,83.50
2018-10-16T12:54:03.778Z,81.70
2018-10-16T12:56:31.853Z,81.70
2018-10-16T12:59:00.261Z,80.20
2018-10-16T13:01:28.335Z,80.70
2018-10-16T13:03:56.393Z,80.90
2018-10-16T13:06:24.502Z,79.80
2018-10-16T13:08:52.676Z,78.80
2018-10-16T13:11:20.750Z,79.30
2018-10-16T13:13:48.844Z,80.50
2018-10-16T13:16:17.203Z,81.20
2018-10-16T13:18:45.266Z,81.20
2018-10-16T13:21:13.350Z,82.60
2018-10-16T13:23:41.527Z,82.40
2018-10-16T13:26:09.571Z,84.20
2018-10-16T13:28:37.620Z,85.00
2018-10-16T13:31:05.812Z,86.20
2018-10-16T13:33:33.839Z,86.40
2018-10-16T13:36:02.010Z,88.40
2018-10-16T13:38:30.436Z,90.10
2018-10-16T13:40:58.578Z,88.80
2018-10-16T13:43:26.679Z,90.90
2018-10-16T13:45:54.802Z,91.50
2018-10-16T13:48:23.263Z,90.80
2018-10-16T13:50:51.347Z,88.60
2018-10-16T13:53:19.436Z,88.90
2018-10-16T13:55:47.570Z,86.90
2018-10-16T13:58:15.625Z,87.30
2018-10-16T14:00:43.735Z,88.10
2018-10-16T14:03:11.821Z,88.10
2018-10-16T14:05:39.933Z,90.00
2018-10-16T14:08:08.055Z,90.90
2018-10-16T14:10:36.074Z,91.50
2018-10-16T14:13:04.657Z,92.10
2018-10-16T14:15:32.838Z,92.40
2018-10-16T14:18:00.969Z,92.70
2018-10-16T14:20:29.092Z,92.10
2018-10-16T14:22:57.208Z,92.30
2018-10-16T14:25:25.292Z,92.10
2018-10-16T14:27:53.441Z,92.20
2018-10-16T14:30:21.652Z,92.20
2018-10-16T14:32:49.735Z,92.40
2018-10-16T14:35:17.802Z,91.90
2018-10-16T14:37:45.912Z,92.30
2018-10-16T14:40:15.225Z,91.90
2018-10-16T14:42:43.523Z,91.90
2018-10-16T14:45:12.420Z,92.00
2018-10-16T14:47:41.352Z,92.50
2018-10-16T14:50:12.159Z,92.40
2018-10-16T14:52:42.717Z,92.50
2018-10-16T14:55:10.850Z,92.40
2018-10-16T14:57:40.008Z,92.40
2018-10-16T15:00:10.575Z,92.80
2018-10-16T15:02:38.811Z,92.90
2018-10-16T15:05:07.555Z,92.90
2018-10-16T15:07:36.123Z,93.10
2018-10-16T15:10:04.531Z,93.30
2018-10-16T15:12:33.501Z,93.30
2018-10-16T15:15:02.894Z,94.40
2018-10-16T15:17:32.079Z,94.30
2018-10-16T15:20:00.523Z,94.90
2018-10-16T15:22:28.907Z,95.90
2018-10-16T15:24:56.989Z,96.20
2018-10-16T15:27:25.112Z,96.50
2018-10-16T15:29:53.706Z,96.90
2018-10-16T15:32:23.482Z,97.10
2018-10-16T15:34:51.586Z,97.10
2018-10-16T15:37:19.655Z,97.90
2018-10-16T15:39:47.739Z,98.00
2018-10-16T15:42:15.952Z,98.20
2018-10-16T15:44:43.983Z,98.80
2018-10-16T15:47:12.046Z,99.80
2018-10-16T15:49:40.179Z,99.90
2018-10-16T15:52:08.319Z,99.90
2018-10-16T15:54:36.377Z,99.90
2018-10-16T15:57:04.834Z,99.90
2018-10-16T15:59:33.415Z,99.90
2018-10-16T16:02:01.575Z,99.90
2018-10-16T16:04:32.654Z,99.90
2018-10-16T16:07:00.744Z,99.90
2018-10-16T16:09:28.909Z,99.90
2018-10-16T16:11:57.089Z,99.90
2018-10-16T16:14:25.289Z,99.90
2018-10-16T16:16:53.404Z,99.90
2018-10-16T16:19:21.475Z,99.90
2018-10-16T16:21:49.878Z,99.90
2018-10-16T16:24:17.966Z,99.90
2018-10-16T16:26:46.036Z,99.90
2018-10-16T16:29:14.153Z,99.90
2018-10-16T16:31:42.259Z,99.90
2018-10-16T16:34:10.393Z,99.90
2018-10-16T16:36:38.529Z,99.90
2018-10-16T16:39:09.253Z,99.90
2018-10-16T16:41:37.352Z,99.90
2018-10-16T16:44:05.615Z,99.90
2018-10-16T16:46:33.654Z,99.90
2018-10-16T16:49:01.867Z,99.90
2018-10-16T16:51:29.940Z,99.90
2018-10-16T16:53:58.028Z,99.90
2018-10-16T16:56:26.164Z,99.90
2018-10-16T16:58:54.331Z,99.90
2018-10-16T17:01:22.683Z,99.90
2018-10-16T17:03:50.802Z,99.90
2018-10-16T17:06:18.888Z,99.90
2018-10-16T17:08:47.276Z,99.90
2018-10-16T17:11:15.432Z,99.90
2018-10-16T17:13:43.558Z,99.90
2018-10-16T17:16:11.723Z,99.90
2018-10-16T17:18:39.843Z,99.90
2018-10-16T17:21:07.941Z,99.90
2018-10-16T17:23:36.545Z,99.90
2018-10-16T17:26:04.952Z,99.90
2018-10-16T17:28:32.843Z,99.90
2018-10-16T17:31:01.304Z,99.90
2018-10-16T17:33:29.452Z,99.90
2018-10-16T17:35:57.590Z,99.90
2018-10-16T17:38:25.723Z,99.90
2018-10-16T17:40:53.808Z,99.90
2018-10-16T17:43:21.972Z,99.90
2018-10-16T17:45:50.116Z,99.90
2018-10-16T17:48:18.342Z,99.90
2018-10-16T17:50:46.380Z,99.90
2018-10-16T17:53:14.541Z,99.90
2018-10-16T17:55:42.619Z,99.90
2018-10-16T17:58:10.701Z,99.90
2018-10-16T18:00:38.848Z,99.90
2018-10-16T18:03:07.033Z,99.90
2018-10-16T18:05:35.059Z,99.90
2018-10-16T18:08:03.869Z,99.90
2018-10-16T18:10:31.974Z,99.90
2018-10-16T18:13:00.084Z,99.90
2018-10-16T18:15:28.254Z,99.90
2018-10-16T18:17:56.367Z,99.90
2018-10-16T18:20:24.518Z,99.90
2018-10-16T18:22:52.630Z,99.90
2018-10-16T18:25:20.774Z,99.90
2018-10-16T18:27:48.960Z,99.90
2018-10-16T18:30:17.436Z,99.90
2018-10-16T18:32:45.558Z,99.90
2018-10-16T18:35:13.664Z,99.90
2018-10-16T18:37:42.921Z,99.90
2018-10-16T18:40:11.771Z,99.90
2018-10-16T18:42:40.466Z,99.90
2018-10-16T18:45:10.057Z,99.90
2018-10-16T18:47:38.136Z,99.90
2018-10-16T18:50:07.063Z,99.90
2018-10-16T18:52:35.409Z,99.90
2018-10-16T18:55:03.619Z,99.90
2018-10-16T18:57:31.725Z,99.90
2018-10-16T18:59:59.850Z,99.90
2018-10-16T19:02:27.948Z,99.90
2018-10-16T19:04:56.074Z,99.90
2018-10-16T19:07:24.252Z,99.90
2018-10-16T19:09:52.376Z,99.90
2018-10-16T19:12:20.528Z,99.90
2018-10-16T19:14:48.663Z,99.90
2018-10-16T19:17:16.759Z,99.90
2018-10-16T19:19:44.948Z,99.90
2018-10-16T19:22:13.021Z,99.90
2018-10-16T19:24:41.157Z,99.90
2018-10-16T19:27:09.306Z,99.90
2018-10-16T19:29:37.375Z,99.90
2018-10-16T19:32:05.636Z,99.90
2018-10-16T19:34:33.713Z,99.90
2018-10-16T19:37:01.873Z,99.90
2018-10-16T19:39:30.023Z,99.90
2018-10-16T19:41:58.165Z,99.90
2018-10-16T19:44:26.698Z,99.90
2018-10-16T19:46:54.887Z,99.90
2018-10-16T19:49:23.600Z,99.90
2018-10-16T19:51:51.802Z,99.90
2018-10-16T19:54:19.898Z,99.90
2018-10-16T19:56:48.035Z,99.90
2018-10-16T19:59:16.143Z,99.90
2018-10-16T20:01:44.227Z,99.90
2018-10-16T20:04:12.373Z,99.90
2018-10-16T20:06:40.563Z,99.90
2018-10-16T20:09:10.194Z,99.90
2018-10-16T20:11:38.400Z,99.90
2018-10-16T20:14:06.610Z,99.90
2018-10-16T20:16:34.704Z,99.90
2018-10-16T20:19:02.838Z,99.90
2018-10-16T20:21:30.947Z,99.90
2018-10-16T20:23:59.173Z,99.90
2018-10-16T20:26:27.262Z,99.90
2018-10-16T20:28:55.356Z,99.90
2018-10-16T20:31:23.731Z,99.90
2018-10-16T20:33:51.972Z,99.90
2018-10-16T20:36:20.359Z,99.90
2018-10-16T20:38:48.593Z,99.90
2018-10-16T20:41:16.848Z,99.90
2018-10-16T20:43:44.932Z,99.90
2018-10-16T20:46:13.344Z,99.90
2018-10-16T20:48:41.483Z,99.90
2018-10-16T20:51:09.597Z,99.90
2018-10-16T20:53:38.061Z,99.90
2018-10-16T20:56:06.236Z,99.90
2018-10-16T20:58:34.311Z,99.90
2018-10-16T21:01:02.513Z,99.90
2018-10-16T21:03:30.617Z,99.90
2018-10-16T21:05:59.280Z,99.90
2018-10-16T21:08:27.315Z,99.90
2018-10-16T21:10:55.471Z,99.90
2018-10-16T21:13:23.570Z,99.90
2018-10-16T21:15:51.692Z,99.90
2018-10-16T21:18:19.811Z,99.90
2018-10-16T21:20:47.903Z,99.90
2018-10-16T21:23:16.068Z,99.90
2018-10-16T21:25:44.420Z,99.90
2018-10-16T21:28:12.508Z,99.90
2018-10-16T21:30:40.613Z,99.90
2018-10-16T21:33:08.747Z,99.90
2018-10-16T21:35:36.822Z,99.90
2018-10-16T21:38:04.903Z,99.90
2018-10-16T21:40:33.276Z,99.90
2018-10-16T21:43:01.419Z,99.90
2018-10-16T21:45:29.530Z,99.90
2018-10-16T21:47:57.647Z,99.90
2018-10-16T21:50:26.104Z,99.90
2018-10-16T21:52:54.222Z,99.90
2018-10-16T21:55:22.300Z,99.90
2018-10-16T21:57:50.452Z,99.90
2018-10-16T22:00:24.036Z,99.90
2018-10-16T22:02:52.160Z,99.90
2018-10-16T22:05:23.622Z,99.90
2018-10-16T22:07:53.402Z,99.90
2018-10-16T22:10:22.007Z,99.90
2018-10-16T22:12:50.468Z,99.90
2018-10-16T22:15:19.492Z,99.90
2018-10-16T22:17:47.511Z,99.90
2018-10-16T22:20:15.721Z,99.90
2018-10-16T22:22:44.832Z,99.90
2018-10-16T22:25:13.284Z,99.90
2018-10-16T22:27:41.385Z,99.90
2018-10-16T22:30:10.103Z,99.90
2018-10-16T22:32:38.258Z,99.90
2018-10-16T22:35:07.770Z,99.90
2018-10-16T22:37:35.886Z,99.90
2018-10-16T22:40:04.268Z,99.90
2018-10-16T22:42:32.411Z,99.90
2018-10-16T22:45:00.541Z,99.90
2018-10-16T22:47:28.688Z,99.90
2018-10-16T22:49:56.877Z,99.90
2018-10-16T22:52:25.022Z,99.90
2018-10-16T22:54:53.203Z,99.90
2018-10-16T22:57:21.286Z,99.90
2018-10-16T22:59:49.442Z,99.90
2018-10-16T23:02:17.601Z,99.90
2018-10-16T23:04:45.713Z,99.90
2018-10-16T23:07:13.870Z,99.90
2018-10-16T23:09:41.990Z,99.90
2018-10-16T23:12:10.212Z,99.90
2018-10-16T23:14:38.350Z,99.90
2018-10-16T23:17:06.459Z,99.90
2018-10-16T23:19:34.761Z,99.90
2018-10-16T23:22:02.903Z,99.90
2018-10-16T23:24:30.995Z,99.90
2018-10-16T23:26:59.608Z,99.90
2018-10-16T23:29:27.785Z,99.90
2018-10-16T23:31:55.885Z,99.90
2018-10-16T23:34:23.971Z,99.90
2018-10-16T23:36:52.117Z,99.90
2018-10-16T23:39:20.206Z,99.90
2018-10-16T23:41:48.311Z,99.90
2018-10-16T23:44:17.298Z,99.90
2018-10-16T23:46:45.369Z,99.90
2018-10-16T23:49:13.527Z,99.90
2018-10-16T23:51:41.631Z,99.90
2018-10-16T23:54:09.727Z,99.90
2018-10-16T23:56:38.034Z,99.90
2018-10-16T23:59:06.178Z,99.90
